Flying Cat 3 — SX6671 — position and weather

sailwx.info

Track history (hours):
 
Tides and Currents Weather Stations Pressure Air Temp Water Temp Dewpoint Dewpoint Depression Visibility Wind Speed Wind Dir Waves Ship Positions

Flying Cat 3

Last reported at 2015-Jul-02 03:28 UTC. Time now 2015-Jul-02 09:49 UTC.
Position N 37°57' E 023°38'.

Length 48 m; draft 1.5 m.

Type: High speed craft. MMSI: 239552000.

Date/timePositionNaut miles runAvg speedWind from/ knotsBaromVisibWave heightAir tempDewpointWater temp
2015-Jul-02 03:28N 37°57' E 023°38'0 0.0
2015-Jul-02 02:34N 37°57' E 023°38'0 0.0
2015-Jul-02 01:31N 37°57' E 023°38'0 0.0
2015-Jul-02 00:31N 37°57' E 023°38'0 0.0
2015-Jul-01 23:31N 37°57' E 023°38'0 0.0
2015-Jul-01 22:28N 37°57' E 023°38'0 0.0
2015-Jul-01 21:31N 37°57' E 023°38'2 2.0
2015-Jul-01 20:31N 37°55' E 023°38'12 1.5
2015-Jul-01 12:31N 37°43' E 023°41'1413.7
2015-Jul-01 11:31N 37°57' E 023°38'0 0.0
2015-Jul-01 10:31N 37°57' E 023°38'0 0.0
2015-Jul-01 09:31N 37°57' E 023°38'0 0.0
2015-Jul-01 08:31N 37°57' E 023°38'0 0.0
2015-Jul-01 07:31N 37°57' E 023°38'0 0.0
2015-Jul-01 06:19N 37°57' E 023°38'0 0.0
2015-Jul-01 05:31N 37°57' E 023°38'0 0.0
2015-Jul-01 04:31N 37°57' E 023°38'0 0.0
2015-Jul-01 03:31N 37°57' E 023°38'0 0.0
2015-Jul-01 02:31N 37°57' E 023°38'0 0.0
2015-Jul-01 01:31N 37°57' E 023°38'0 0.0
2015-Jul-01 00:31N 37°57' E 023°38'0 0.0
2015-Jun-30 23:28N 37°57' E 023°38'0 0.0
2015-Jun-30 22:13N 37°57' E 023°38'0 0.0
2015-Jun-30 21:31N 37°57' E 023°38'1 1.3
2015-Jun-30 20:33N 37°56' E 023°37'15 1.8
2015-Jun-30 12:33N 37°42' E 023°42'1515.3
2015-Jun-30 11:33N 37°57' E 023°38'0 0.0
2015-Jun-30 10:33N 37°57' E 023°38'0 0.0
2015-Jun-30 09:14N 37°57' E 023°38'0 0.0
2015-Jun-30 08:32N 37°57' E 023°38'0 0.0
2015-Jun-30 07:29N 37°57' E 023°38'0 0.0
2015-Jun-30 06:32N 37°57' E 023°38'0 0.0
2015-Jun-30 05:32N 37°57' E 023°38'0 0.0
2015-Jun-30 04:32N 37°57' E 023°38'0 0.0
2015-Jun-30 03:32N 37°57' E 023°38'0 0.0
2015-Jun-30 02:32N 37°57' E 023°38'0 0.0
2015-Jun-30 01:32N 37°57' E 023°38'0 0.0
2015-Jun-30 00:32N 37°57' E 023°38'0 0.0
2015-Jun-29 23:32N 37°57' E 023°38'0 0.0
2015-Jun-29 22:32N 37°57' E 023°38'0 0.0
2015-Jun-29 21:32N 37°57' E 023°38'2 1.6
2015-Jun-29 20:34N 37°55' E 023°37'14 1.8
2015-Jun-29 12:33N 37°42' E 023°42'1515.0
2015-Jun-29 11:31N 37°57' E 023°38'0 0.0
2015-Jun-29 10:31N 37°57' E 023°38'0 0.0
2015-Jun-29 09:31N 37°57' E 023°38'2 1.6
2015-Jun-29 08:34N 37°56' E 023°37'16 5.2
2015-Jun-29 05:34N 37°40' E 023°34'1716.6
2015-Jun-29 04:33N 37°57' E 023°39'0 0.0
2015-Jun-29 03:33N 37°57' E 023°39'0 0.0
2015-Jun-29 02:30N 37°57' E 023°39'0 0.0
2015-Jun-29 01:09N 37°57' E 023°39'0 0.0
2015-Jun-29 00:33N 37°57' E 023°39'0 0.0
2015-Jun-28 23:33N 37°57' E 023°39'0 0.0
2015-Jun-28 22:21N 37°57' E 023°39'0 0.0
2015-Jun-28 21:30N 37°57' E 023°39'3 3.5
2015-Jun-28 20:34N 37°53' E 023°38'11 1.4
2015-Jun-28 12:31N 37°42' E 023°41'1514.6
2015-Jun-28 11:31N 37°57' E 023°38'0 0.0
2015-Jun-28 10:31N 37°57' E 023°38'0 0.0
2015-Jun-28 09:25N 37°57' E 023°38'3 3.8
2015-Jun-28 08:34N 37°54' E 023°37'10 3.2
2015-Jun-28 05:34N 37°44' E 023°35'1312.0
2015-Jun-28 04:30N 37°57' E 023°39'0 0.0
2015-Jun-28 03:33N 37°57' E 023°39'0 0.0
2015-Jun-28 02:33N 37°57' E 023°39'0 0.0
2015-Jun-28 01:33N 37°57' E 023°39'0 0.0
2015-Jun-28 00:33N 37°57' E 023°39'0 0.0
2015-Jun-27 23:33N 37°57' E 023°39'0 0.0
2015-Jun-27 22:33N 37°57' E 023°39'0 0.0
2015-Jun-27 21:33N 37°57' E 023°39'2 1.8
2015-Jun-27 20:33N 37°55' E 023°37'13 1.6
2015-Jun-27 12:33N 37°42' E 023°42'1514.3
2015-Jun-27 11:31N 37°57' E 023°38'0 0.0
2015-Jun-27 10:29N 37°57' E 023°38'0 0.0
2015-Jun-27 09:31N 37°57' E 023°38'1 1.2
2015-Jun-27 08:34N 37°56' E 023°37'16 5.3
2015-Jun-27 05:34N 37°40' E 023°35'1715.7
2015-Jun-27 04:30N 37°57' E 023°39'0 0.0
2015-Jun-27 03:33N 37°57' E 023°39'0 0.0
2015-Jun-27 02:30N 37°57' E 023°39'0 0.0
2015-Jun-27 01:30N 37°57' E 023°39'0 0.0
2015-Jun-27 00:33N 37°57' E 023°39'0 0.0
2015-Jun-26 23:33N 37°57' E 023°39'0 0.0
2015-Jun-26 22:30N 37°57' E 023°39'0 0.0
2015-Jun-26 21:30N 37°57' E 023°39'1 1.5
2015-Jun-26 20:33N 37°56' E 023°37'12 1.5
2015-Jun-26 12:33N 37°44' E 023°40'1312.5
2015-Jun-26 11:32N 37°57' E 023°38'0 0.0
2015-Jun-26 10:32N 37°57' E 023°38'0 0.0
2015-Jun-26 09:32N 37°57' E 023°38'8 7.8
2015-Jun-26 08:34N 37°49' E 023°36'1 0.4
2015-Jun-26 05:23N 37°48' E 023°36'7 0.8
2015-Jun-25 20:31N 37°55' E 023°37'14 1.7
2015-Jun-25 12:33N 37°42' E 023°41'1514.3
2015-Jun-25 11:32N 37°57' E 023°38'0 0.0
2015-Jun-25 10:29N 37°57' E 023°38'0 0.0
2015-Jun-25 09:32N 37°57' E 023°38'0 0.0
2015-Jun-25 08:26N 37°57' E 023°38'0 0.0
2015-Jun-25 07:32N 37°57' E 023°38'0 0.0
2015-Jun-25 06:29N 37°57' E 023°38'0 0.0
2015-Jun-25 05:29N 37°57' E 023°38'0 0.0
2015-Jun-25 04:17N 37°57' E 023°38'0 0.0
2015-Jun-25 03:32N 37°57' E 023°38'0 0.0
2015-Jun-25 02:32N 37°57' E 023°38'0 0.0
2015-Jun-25 01:29N 37°57' E 023°38'0 0.0
2015-Jun-25 00:32N 37°57' E 023°38'0 0.0
2015-Jun-24 23:32N 37°57' E 023°38'0 0.0
2015-Jun-24 22:26N 37°57' E 023°38'0 0.0
2015-Jun-24 21:32N 37°57' E 023°38'1 1.1
2015-Jun-24 20:34N 37°56' E 023°37'15 1.9
2015-Jun-24 12:33N 37°42' E 023°42'1514.2
2015-Jun-24 11:29N 37°57' E 023°38'0 0.0
2015-Jun-24 10:32N 37°57' E 023°38'0 0.0
2015-Jun-24 09:29N 37°57' E 023°38'0 0.0
2015-Jun-24 08:32N 37°57' E 023°38'0 0.0
2015-Jun-24 07:32N 37°57' E 023°38'0 0.0
2015-Jun-24 06:32N 37°57' E 023°38'0 0.0
2015-Jun-24 05:32N 37°57' E 023°38'0 0.0
2015-Jun-24 04:20N 37°57' E 023°38'0 0.0
2015-Jun-24 03:32N 37°57' E 023°38'0 0.0
2015-Jun-24 02:29N 37°57' E 023°38'0 0.0
2015-Jun-24 01:32N 37°57' E 023°38'0 0.0
2015-Jun-24 00:32N 37°57' E 023°38'0 0.0
2015-Jun-23 23:32N 37°57' E 023°38'0 0.0
2015-Jun-23 22:32N 37°57' E 023°38'0 0.0
2015-Jun-23 21:32N 37°57' E 023°38'1 1.4
2015-Jun-23 20:34N 37°56' E 023°37'14 0.4
2015-Jun-22 12:33N 37°42' E 023°42'1512.6
2015-Jun-22 11:23N 37°57' E 023°38'0 0.0
2015-Jun-22 10:29N 37°57' E 023°38'0 0.0
2015-Jun-22 09:32N 37°57' E 023°38'0 0.0
2015-Jun-22 08:29N 37°57' E 023°38'0 0.0
2015-Jun-22 07:29N 37°57' E 023°38'0 0.0
2015-Jun-22 06:23N 37°57' E 023°38'0 0.0
2015-Jun-22 05:29N 37°57' E 023°38'0 0.0
2015-Jun-22 04:32N 37°57' E 023°38'0 0.0
2015-Jun-22 03:29N 37°57' E 023°38'  
Track history (hours):
 
Tides and Currents Weather Stations Pressure Air Temp Water Temp Dewpoint Dewpoint Depression Visibility Wind Speed Wind Dir Waves Ship Positions

Flying Cat 3

Last reported at 2015-Jul-02 03:28 UTC. Time now 2015-Jul-02 09:49 UTC.
Position N 37°57' E 023°38'.

Length 48 m; draft 1.5 m.

Type: High speed craft. MMSI: 239552000.

Date/timePositionNaut miles runAvg speedWind from/ knotsBaromVisibWave heightAir tempDewpointWater temp
2015-Jul-02 03:28N 37°57' E 023°38'0 0.0
2015-Jul-02 02:34N 37°57' E 023°38'0 0.0
2015-Jul-02 01:31N 37°57' E 023°38'0 0.0
2015-Jul-02 00:31N 37°57' E 023°38'0 0.0
2015-Jul-01 23:31N 37°57' E 023°38'0 0.0
2015-Jul-01 22:28N 37°57' E 023°38'0 0.0
2015-Jul-01 21:31N 37°57' E 023°38'2 2.0
2015-Jul-01 20:31N 37°55' E 023°38'12 1.5
2015-Jul-01 12:31N 37°43' E 023°41'1413.7
2015-Jul-01 11:31N 37°57' E 023°38'0 0.0
2015-Jul-01 10:31N 37°57' E 023°38'0 0.0
2015-Jul-01 09:31N 37°57' E 023°38'0 0.0
2015-Jul-01 08:31N 37°57' E 023°38'0 0.0
2015-Jul-01 07:31N 37°57' E 023°38'0 0.0
2015-Jul-01 06:19N 37°57' E 023°38'0 0.0
2015-Jul-01 05:31N 37°57' E 023°38'0 0.0
2015-Jul-01 04:31N 37°57' E 023°38'0 0.0
2015-Jul-01 03:31N 37°57' E 023°38'0 0.0
2015-Jul-01 02:31N 37°57' E 023°38'0 0.0
2015-Jul-01 01:31N 37°57' E 023°38'0 0.0
2015-Jul-01 00:31N 37°57' E 023°38'0 0.0
2015-Jun-30 23:28N 37°57' E 023°38'0 0.0
2015-Jun-30 22:13N 37°57' E 023°38'0 0.0
2015-Jun-30 21:31N 37°57' E 023°38'1 1.3
2015-Jun-30 20:33N 37°56' E 023°37'15 1.8
2015-Jun-30 12:33N 37°42' E 023°42'1515.3
2015-Jun-30 11:33N 37°57' E 023°38'0 0.0
2015-Jun-30 10:33N 37°57' E 023°38'0 0.0
2015-Jun-30 09:14N 37°57' E 023°38'0 0.0
2015-Jun-30 08:32N 37°57' E 023°38'0 0.0
2015-Jun-30 07:29N 37°57' E 023°38'0 0.0
2015-Jun-30 06:32N 37°57' E 023°38'0 0.0
2015-Jun-30 05:32N 37°57' E 023°38'0 0.0
2015-Jun-30 04:32N 37°57' E 023°38'0 0.0
2015-Jun-30 03:32N 37°57' E 023°38'0 0.0
2015-Jun-30 02:32N 37°57' E 023°38'0 0.0
2015-Jun-30 01:32N 37°57' E 023°38'0 0.0
2015-Jun-30 00:32N 37°57' E 023°38'0 0.0
2015-Jun-29 23:32N 37°57' E 023°38'0 0.0
2015-Jun-29 22:32N 37°57' E 023°38'0 0.0
2015-Jun-29 21:32N 37°57' E 023°38'2 1.6
2015-Jun-29 20:34N 37°55' E 023°37'14 1.8
2015-Jun-29 12:33N 37°42' E 023°42'1515.0
2015-Jun-29 11:31N 37°57' E 023°38'0 0.0
2015-Jun-29 10:31N 37°57' E 023°38'0 0.0
2015-Jun-29 09:31N 37°57' E 023°38'2 1.6
2015-Jun-29 08:34N 37°56' E 023°37'16 5.2
2015-Jun-29 05:34N 37°40' E 023°34'1716.6
2015-Jun-29 04:33N 37°57' E 023°39'0 0.0
2015-Jun-29 03:33N 37°57' E 023°39'0 0.0
2015-Jun-29 02:30N 37°57' E 023°39'0 0.0
2015-Jun-29 01:09N 37°57' E 023°39'0 0.0
2015-Jun-29 00:33N 37°57' E 023°39'0 0.0
2015-Jun-28 23:33N 37°57' E 023°39'0 0.0
2015-Jun-28 22:21N 37°57' E 023°39'0 0.0
2015-Jun-28 21:30N 37°57' E 023°39'3 3.5
2015-Jun-28 20:34N 37°53' E 023°38'11 1.4
2015-Jun-28 12:31N 37°42' E 023°41'1514.6
2015-Jun-28 11:31N 37°57' E 023°38'0 0.0
2015-Jun-28 10:31N 37°57' E 023°38'0 0.0
2015-Jun-28 09:25N 37°57' E 023°38'3 3.8
2015-Jun-28 08:34N 37°54' E 023°37'10 3.2
2015-Jun-28 05:34N 37°44' E 023°35'1312.0
2015-Jun-28 04:30N 37°57' E 023°39'0 0.0
2015-Jun-28 03:33N 37°57' E 023°39'0 0.0
2015-Jun-28 02:33N 37°57' E 023°39'0 0.0
2015-Jun-28 01:33N 37°57' E 023°39'0 0.0
2015-Jun-28 00:33N 37°57' E 023°39'0 0.0
2015-Jun-27 23:33N 37°57' E 023°39'0 0.0
2015-Jun-27 22:33N 37°57' E 023°39'0 0.0
2015-Jun-27 21:33N 37°57' E 023°39'2 1.8
2015-Jun-27 20:33N 37°55' E 023°37'13 1.6
2015-Jun-27 12:33N 37°42' E 023°42'1514.3
2015-Jun-27 11:31N 37°57' E 023°38'0 0.0
2015-Jun-27 10:29N 37°57' E 023°38'0 0.0
2015-Jun-27 09:31N 37°57' E 023°38'1 1.2
2015-Jun-27 08:34N 37°56' E 023°37'16 5.3
2015-Jun-27 05:34N 37°40' E 023°35'1715.7
2015-Jun-27 04:30N 37°57' E 023°39'0 0.0
2015-Jun-27 03:33N 37°57' E 023°39'0 0.0
2015-Jun-27 02:30N 37°57' E 023°39'0 0.0
2015-Jun-27 01:30N 37°57' E 023°39'0 0.0
2015-Jun-27 00:33N 37°57' E 023°39'0 0.0
2015-Jun-26 23:33N 37°57' E 023°39'0 0.0
2015-Jun-26 22:30N 37°57' E 023°39'0 0.0
2015-Jun-26 21:30N 37°57' E 023°39'1 1.5
2015-Jun-26 20:33N 37°56' E 023°37'12 1.5
2015-Jun-26 12:33N 37°44' E 023°40'1312.5
2015-Jun-26 11:32N 37°57' E 023°38'0 0.0
2015-Jun-26 10:32N 37°57' E 023°38'0 0.0
2015-Jun-26 09:32N 37°57' E 023°38'8 7.8
2015-Jun-26 08:34N 37°49' E 023°36'1 0.4
2015-Jun-26 05:23N 37°48' E 023°36'7 0.8
2015-Jun-25 20:31N 37°55' E 023°37'14 1.7
2015-Jun-25 12:33N 37°42' E 023°41'1514.3
2015-Jun-25 11:32N 37°57' E 023°38'0 0.0
2015-Jun-25 10:29N 37°57' E 023°38'0 0.0
2015-Jun-25 09:32N 37°57' E 023°38'0 0.0
2015-Jun-25 08:26N 37°57' E 023°38'0 0.0
2015-Jun-25 07:32N 37°57' E 023°38'0 0.0
2015-Jun-25 06:29N 37°57' E 023°38'0 0.0
2015-Jun-25 05:29N 37°57' E 023°38'0 0.0
2015-Jun-25 04:17N 37°57' E 023°38'0 0.0
2015-Jun-25 03:32N 37°57' E 023°38'0 0.0
2015-Jun-25 02:32N 37°57' E 023°38'0 0.0
2015-Jun-25 01:29N 37°57' E 023°38'0 0.0
2015-Jun-25 00:32N 37°57' E 023°38'0 0.0
2015-Jun-24 23:32N 37°57' E 023°38'0 0.0
2015-Jun-24 22:26N 37°57' E 023°38'0 0.0
2015-Jun-24 21:32N 37°57' E 023°38'1 1.1
2015-Jun-24 20:34N 37°56' E 023°37'15 1.9
2015-Jun-24 12:33N 37°42' E 023°42'1514.2
2015-Jun-24 11:29N 37°57' E 023°38'0 0.0
2015-Jun-24 10:32N 37°57' E 023°38'0 0.0
2015-Jun-24 09:29N 37°57' E 023°38'0 0.0
2015-Jun-24 08:32N 37°57' E 023°38'0 0.0
2015-Jun-24 07:32N 37°57' E 023°38'0 0.0
2015-Jun-24 06:32N 37°57' E 023°38'0 0.0
2015-Jun-24 05:32N 37°57' E 023°38'0 0.0
2015-Jun-24 04:20N 37°57' E 023°38'0 0.0
2015-Jun-24 03:32N 37°57' E 023°38'0 0.0
2015-Jun-24 02:29N 37°57' E 023°38'0 0.0
2015-Jun-24 01:32N 37°57' E 023°38'0 0.0
2015-Jun-24 00:32N 37°57' E 023°38'0 0.0
2015-Jun-23 23:32N 37°57' E 023°38'0 0.0
2015-Jun-23 22:32N 37°57' E 023°38'0 0.0
2015-Jun-23 21:32N 37°57' E 023°38'1 1.4
2015-Jun-23 20:34N 37°56' E 023°37'14 0.4
2015-Jun-22 12:33N 37°42' E 023°42'1512.6
2015-Jun-22 11:23N 37°57' E 023°38'0 0.0
2015-Jun-22 10:29N 37°57' E 023°38'0 0.0
2015-Jun-22 09:32N 37°57' E 023°38'0 0.0
2015-Jun-22 08:29N 37°57' E 023°38'0 0.0
2015-Jun-22 07:29N 37°57' E 023°38'0 0.0
2015-Jun-22 06:23N 37°57' E 023°38'0 0.0
2015-Jun-22 05:29N 37°57' E 023°38'0 0.0
2015-Jun-22 04:32N 37°57' E 023°38'0 0.0
2015-Jun-22 03:29N 37°57' E 023°38'  

Dump ship's entire track history